createdAt,value
2022-09-03T00:00:16.383Z,1.90
2022-09-03T00:05:30.018Z,2.67
2022-09-03T00:10:42.501Z,2.90
2022-09-03T00:15:44.369Z,2.17
2022-09-03T00:20:56.483Z,1.67
2022-09-03T00:25:58.164Z,2.60
2022-09-03T00:31:10.597Z,1.63
2022-09-03T00:36:23.617Z,1.58
2022-09-03T00:41:25.268Z,1.60
2022-09-03T00:46:43.769Z,1.73
2022-09-03T00:52:00.997Z,4.60
2022-09-03T00:57:10.284Z,2.07
2022-09-03T01:02:47.999Z,4.68
2022-09-03T01:07:55.344Z,2.37
2022-09-03T01:13:06.384Z,1.67
2022-09-03T01:18:25.748Z,1.85
2022-09-03T01:23:46.071Z,1.10
2022-09-03T01:28:57.265Z,1.52
2022-09-03T01:34:07.210Z,3.07
2022-09-03T01:39:29.650Z,2.47
2022-09-03T01:45:06.138Z,1.80
2022-09-03T01:50:24.365Z,1.38
2022-09-03T01:55:33.451Z,2.00
2022-09-03T02:00:38.770Z,2.20
2022-09-03T02:05:40.602Z,2.03
2022-09-03T02:10:44.184Z,2.33
2022-09-03T02:15:48.737Z,4.80
2022-09-03T02:20:52.236Z,3.00
2022-09-03T02:25:58.727Z,3.20
2022-09-03T02:31:00.732Z,2.90
2022-09-03T02:36:05.947Z,2.22
2022-09-03T02:41:07.770Z,2.67
2022-09-03T02:46:17.056Z,5.05
2022-09-03T02:51:18.912Z,2.33
2022-09-03T02:56:20.618Z,3.58
2022-09-03T03:01:24.195Z,4.07
2022-09-03T03:06:26.385Z,2.87
2022-09-03T03:11:28.059Z,3.00
2022-09-03T03:16:29.835Z,3.72
2022-09-03T03:21:31.641Z,4.07
2022-09-03T03:26:33.627Z,3.55
2022-09-03T03:31:36.410Z,4.17
2022-09-03T03:36:38.244Z,3.30
2022-09-03T03:41:39.972Z,4.07
2022-09-03T03:46:42.019Z,3.13
2022-09-03T03:51:43.806Z,2.85
2022-09-03T03:56:50.796Z,3.05
2022-09-03T04:01:57.624Z,3.15
2022-09-03T04:06:59.369Z,3.75
2022-09-03T04:12:01.544Z,3.47
2022-09-03T04:17:03.422Z,3.20
2022-09-03T04:22:05.174Z,3.43
2022-09-03T04:27:07.003Z,3.00
2022-09-03T04:32:08.694Z,3.15
2022-09-03T04:37:10.427Z,3.35
2022-09-03T04:42:12.151Z,3.10
2022-09-03T04:47:13.888Z,2.60
2022-09-03T04:52:15.594Z,4.05
2022-09-03T04:57:17.351Z,3.90
2022-09-03T05:02:19.095Z,3.97
2022-09-03T05:07:20.856Z,3.75
2022-09-03T05:12:23.997Z,3.67
2022-09-03T05:17:28.178Z,3.15
2022-09-03T05:22:29.892Z,5.70
2022-09-03T05:27:31.876Z,4.00
2022-09-03T05:32:33.601Z,4.45
2022-09-03T05:37:35.312Z,4.17
2022-09-03T05:42:40.371Z,3.70
2022-09-03T05:47:42.087Z,3.72
2022-09-03T05:52:43.785Z,4.75
2022-09-03T05:57:45.568Z,5.90
2022-09-03T06:02:54.059Z,4.27
2022-09-03T06:07:55.977Z,4.18
2022-09-03T06:12:57.692Z,5.75
2022-09-03T06:17:59.400Z,5.37
2022-09-03T06:23:01.128Z,4.65
2022-09-03T06:28:03.095Z,4.85
2022-09-03T06:33:04.827Z,4.38
2022-09-03T06:38:06.573Z,7.25
2022-09-03T06:43:08.376Z,5.23
2022-09-03T06:48:10.080Z,3.63
2022-09-03T06:53:11.885Z,4.60
2022-09-03T06:58:13.598Z,3.65
2022-09-03T07:03:16.050Z,4.20
2022-09-03T07:08:17.775Z,4.47
2022-09-03T07:13:19.483Z,3.57
2022-09-03T07:18:21.219Z,5.70
2022-09-03T07:23:22.936Z,4.47
2022-09-03T07:28:25.317Z,5.20
2022-09-03T07:33:33.532Z,4.32
2022-09-03T07:38:35.991Z,4.20
2022-09-03T07:43:39.898Z,4.15
2022-09-03T07:48:42.133Z,6.20
2022-09-03T07:53:45.376Z,4.35
2022-09-03T07:58:47.304Z,3.70
2022-09-03T08:03:51.114Z,3.03
2022-09-03T08:09:05.723Z,6.60
2022-09-03T08:14:10.108Z,2.80
2022-09-03T08:19:11.920Z,3.77
2022-09-03T08:24:15.999Z,2.93
2022-09-03T08:29:17.951Z,5.43
2022-09-03T08:34:20.125Z,3.47
2022-09-03T08:39:21.903Z,3.17
2022-09-03T08:44:44.394Z,2.88
2022-09-03T08:49:57.517Z,2.50
2022-09-03T08:55:20.284Z,3.00
2022-09-03T09:00:22.188Z,3.00
2022-09-03T09:05:29.860Z,2.15
2022-09-03T09:10:57.994Z,1.70
2022-09-03T09:16:07.086Z,1.98
2022-09-03T09:21:11.632Z,2.45
2022-09-03T09:26:18.411Z,1.70
2022-09-03T09:31:20.267Z,4.53
2022-09-03T09:36:23.009Z,1.77
2022-09-03T09:41:29.573Z,2.57
2022-09-03T09:46:37.458Z,2.97
2022-09-03T09:51:39.383Z,1.55
2022-09-03T09:56:43.315Z,1.48
2022-09-03T10:01:45.774Z,1.10
2022-09-03T10:06:54.705Z,1.65
2022-09-03T10:12:17.080Z,1.58
2022-09-03T10:17:37.459Z,2.05
2022-09-03T10:22:56.229Z,1.63
2022-09-03T10:28:00.301Z,3.72
2022-09-03T10:33:14.613Z,1.60
2022-09-03T10:38:34.212Z,4.90
2022-09-03T10:43:52.104Z,1.90
2022-09-03T10:49:12.365Z,1.98
2022-09-03T10:54:14.071Z,2.27
2022-09-03T10:59:39.977Z,1.38
2022-09-03T11:04:51.614Z,1.40
2022-09-03T11:10:22.063Z,3.50
2022-09-03T11:15:42.307Z,2.20
2022-09-03T11:20:44.540Z,2.78
2022-09-03T11:25:56.729Z,1.27
2022-09-03T11:31:48.228Z,1.00
2022-09-03T11:36:50.329Z,2.60
2022-09-03T11:42:27.617Z,6.15
2022-09-03T11:47:41.439Z,2.30
2022-09-03T11:52:43.181Z,1.55
2022-09-03T11:57:44.923Z,1.45
2022-09-03T12:03:02.051Z,2.22
2022-09-03T12:08:08.698Z,2.20
2022-09-03T12:13:48.163Z,2.10
2022-09-03T12:18:50.436Z,1.37
2022-09-03T12:23:58.193Z,1.70
2022-09-03T12:29:00.782Z,1.37
2022-09-03T12:34:10.464Z,1.40
2022-09-03T12:39:17.423Z,1.40
2022-09-03T12:44:29.562Z,0.82
2022-09-03T12:49:39.912Z,0.77
2022-09-03T12:54:56.760Z,1.50
2022-09-03T13:00:05.331Z,2.00
2022-09-03T13:05:16.903Z,1.60
2022-09-03T13:10:45.079Z,1.65
2022-09-03T13:16:11.323Z,1.40
2022-09-03T13:21:27.883Z,1.00
2022-09-03T13:26:48.160Z,1.55
2022-09-03T13:32:05.977Z,1.27
2022-09-03T13:37:58.328Z,1.60
2022-09-03T13:43:20.815Z,1.93
2022-09-03T13:48:47.381Z,1.98
2022-09-03T13:54:09.427Z,2.90
2022-09-03T13:59:48.446Z,2.72
2022-09-03T14:05:25.145Z,1.40
2022-09-03T14:10:57.737Z,1.40
2022-09-03T14:16:31.651Z,1.27
2022-09-03T14:21:59.008Z,2.40
2022-09-03T14:27:02.956Z,1.63
2022-09-03T14:32:13.508Z,3.40
2022-09-03T14:37:34.134Z,2.00
2022-09-03T14:42:48.337Z,1.98
2022-09-03T14:48:36.520Z,1.70
2022-09-03T14:53:57.629Z,1.58
2022-09-03T14:59:19.544Z,3.92
2022-09-03T15:04:30.148Z,2.05
2022-09-03T15:09:54.391Z,3.53
2022-09-03T15:14:58.449Z,2.55
2022-09-03T15:20:30.963Z,2.58
2022-09-03T15:25:58.503Z,5.07
2022-09-03T15:31:15.253Z,2.50
2022-09-03T15:36:21.513Z,2.17
2022-09-03T15:41:26.262Z,4.00
2022-09-03T15:47:14.743Z,4.50
2022-09-03T15:52:38.638Z,2.83
2022-09-03T15:58:15.123Z,2.60
2022-09-03T16:03:24.213Z,2.67
2022-09-03T16:08:56.711Z,1.90
2022-09-03T16:14:23.284Z,2.65
2022-09-03T16:19:40.164Z,3.45
2022-09-03T16:24:56.187Z,2.13
2022-09-03T16:30:08.855Z,2.10
2022-09-03T16:35:24.767Z,2.85
2022-09-03T16:40:29.301Z,3.05
2022-09-03T16:45:39.887Z,4.10
2022-09-03T16:50:50.484Z,9.70
2022-09-03T16:56:33.207Z,3.22
2022-09-03T17:01:56.269Z,4.53
2022-09-03T17:07:17.938Z,2.60
2022-09-03T17:12:31.872Z,3.08
2022-09-03T17:18:14.737Z,4.78
2022-09-03T17:23:48.107Z,2.72
2022-09-03T17:29:16.354Z,3.65
2022-09-03T17:35:02.159Z,2.50
2022-09-03T17:40:25.370Z,2.95
2022-09-03T17:45:36.228Z,4.15
2022-09-03T17:51:12.730Z,4.82
2022-09-03T17:56:49.259Z,3.20
2022-09-03T18:02:13.884Z,5.20
2022-09-03T18:07:51.136Z,7.20
2022-09-03T18:13:23.620Z,7.05
2022-09-03T18:18:30.631Z,5.35
2022-09-03T18:24:04.520Z,5.67
2022-09-03T18:29:16.621Z,7.15
2022-09-03T18:34:21.921Z,5.70
2022-09-03T18:39:28.223Z,8.43
2022-09-03T18:44:48.725Z,5.90
2022-09-03T18:50:19.038Z,5.72
2022-09-03T18:55:37.125Z,6.57
2022-09-03T19:00:52.157Z,6.00
2022-09-03T19:06:05.735Z,9.10
2022-09-03T19:11:25.932Z,8.10
2022-09-03T19:16:59.669Z,7.85
2022-09-03T19:22:12.630Z,7.72
2022-09-03T19:27:58.583Z,9.00
2022-09-03T19:33:22.850Z,7.90
2022-09-03T19:38:50.447Z,7.72
2022-09-03T19:44:13.531Z,8.77
2022-09-03T19:49:48.332Z,8.00
2022-09-03T19:54:54.465Z,8.40
2022-09-03T19:59:58.458Z,8.15
2022-09-03T20:05:02.709Z,8.55
2022-09-03T20:10:08.215Z,9.75
2022-09-03T20:15:10.403Z,7.80
2022-09-03T20:20:15.119Z,8.27
2022-09-03T20:25:25.433Z,8.60
2022-09-03T20:30:54.067Z,8.13
2022-09-03T20:36:15.097Z,8.70
2022-09-03T20:41:50.872Z,8.73
2022-09-03T20:47:13.397Z,8.52
2022-09-03T20:52:47.493Z,8.32
2022-09-03T20:58:08.604Z,8.73
2022-09-03T21:03:21.609Z,10.45
2022-09-03T21:08:41.584Z,7.68
2022-09-03T21:13:58.095Z,14.23
2022-09-03T21:19:09.453Z,7.72
2022-09-03T21:24:20.980Z,11.43
2022-09-03T21:29:41.446Z,9.43
2022-09-03T21:35:10.908Z,8.93
2022-09-03T21:40:13.459Z,9.43
2022-09-03T21:45:34.285Z,11.05
2022-09-03T21:50:50.343Z,11.23
2022-09-03T21:56:22.461Z,10.73
2022-09-03T22:01:48.620Z,11.30
2022-09-03T22:06:50.343Z,10.05
2022-09-03T22:12:11.920Z,10.55
2022-09-03T22:17:37.603Z,11.95
2022-09-03T22:22:55.615Z,12.18
2022-09-03T22:28:17.566Z,12.30
2022-09-03T22:33:32.063Z,11.93
2022-09-03T22:38:59.726Z,11.88
2022-09-03T22:44:27.277Z,12.23
2022-09-03T22:49:45.609Z,12.03
2022-09-03T22:54:53.341Z,12.52
2022-09-03T23:00:04.436Z,12.27
2022-09-03T23:05:38.407Z,12.27
2022-09-03T23:10:48.529Z,14.50
2022-09-03T23:16:01.063Z,13.60
2022-09-03T23:21:07.993Z,13.27
2022-09-03T23:26:12.285Z,12.73
2022-09-03T23:31:23.541Z,13.60
2022-09-03T23:37:05.752Z,12.35
2022-09-03T23:42:33.477Z,11.90
2022-09-03T23:47:44.035Z,10.82
2022-09-03T23:53:23.048Z,11.27
2022-09-03T23:58:46.428Z,11.50
